Time;durP1;ratioP1;P1;durP2;ratioP2;P2;SDS_P1;SDS_P2;PMS_P1;PMS_P2;Temp;Humidity;BMP_temperature;BMP_pressure;BME280_temperature;BME280_humidity;BME280_pressure;Samples;Min_cycle;Max_cycle;Signal;HPM_P1;HPM_P2
2023/06/03 00:00:21;;;;;;;2.13;1.17;;;12.30;99.90;;;;;;6213166;23;20020;-40
2023/06/03 00:02:52;;;;;;;2.53;0.95;;;12.30;99.90;;;;;;6183477;23;20066;-40
2023/06/03 00:05:22;;;;;;;1.63;1.20;;;12.30;99.90;;;;;;6212563;23;20023;-40
2023/06/03 00:07:48;;;;;;;1.85;1.10;;;12.20;99.90;;;;;;6213722;23;20024;-42
2023/06/03 00:10:14;;;;;;;2.50;1.10;;;12.20;99.90;;;;;;6212492;23;20013;-40
2023/06/03 00:12:40;;;;;;;2.45;0.90;;;12.30;99.90;;;;;;6214285;23;20079;-40
2023/06/03 00:15:07;;;;;;;4.03;1.23;;;12.10;99.90;;;;;;6214252;23;20365;-40
2023/06/03 00:17:33;;;;;;;2.63;1.03;;;12.10;99.90;;;;;;6210681;23;20083;-41
2023/06/03 00:20:06;;;;;;;2.53;0.82;;;12.10;99.90;;;;;;6206323;23;20493;-40
2023/06/03 00:22:33;;;;;;;1.50;1.13;;;12.00;99.90;;;;;;6179080;23;20479;-41
2023/06/03 00:24:59;;;;;;;1.10;0.90;;;12.00;99.90;;;;;;6208142;23;20020;-42
2023/06/03 00:27:24;;;;;;;1.80;0.85;;;12.00;99.90;;;;;;6210301;23;20032;-40
2023/06/03 00:29:50;;;;;;;1.15;0.93;;;12.00;99.90;;;;;;6208498;23;20009;-39
2023/06/03 00:32:16;;;;;;;2.20;1.08;;;12.00;99.90;;;;;;6209336;23;20013;-40
2023/06/03 00:34:41;;;;;;;3.05;1.10;;;11.90;99.90;;;;;;6210352;23;20023;-41
2023/06/03 00:37:07;;;;;;;4.72;0.95;;;;;;;;;;6183074;23;20090;-39
2023/06/03 00:39:33;;;;;;;3.22;1.00;;;11.90;99.90;;;;;;6210650;23;20027;-39
2023/06/03 00:41:58;;;;;;;0.98;0.90;;;11.80;99.90;;;;;;6209764;23;20012;-40
2023/06/03 00:44:24;;;;;;;1.55;0.80;;;11.80;99.90;;;;;;6209267;23;20033;-40
2023/06/03 00:46:50;;;;;;;2.42;1.00;;;11.80;99.90;;;;;;6183352;23;20078;-40
2023/06/03 00:49:16;;;;;;;1.52;0.90;;;11.80;99.90;;;;;;6209771;23;20123;-41
2023/06/03 00:51:42;;;;;;;2.75;1.25;;;11.70;99.90;;;;;;6210009;23;20449;-42
2023/06/03 00:54:08;;;;;;;2.67;0.98;;;11.70;99.90;;;;;;6213609;23;20016;-41
2023/06/03 00:56:42;;;;;;;3.22;1.15;;;11.60;99.90;;;;;;6162923;23;20075;-40
2023/06/03 00:59:10;;;;;;;1.38;1.08;;;11.60;99.90;;;;;;6215481;23;20338;-41
2023/06/03 01:01:38;;;;;;;;;;;11.50;99.90;;;;;;6215191;23;20075;-40
2023/06/03 01:04:05;;;;;;;1.85;0.90;;;11.50;99.90;;;;;;6214048;23;19915;-41
2023/06/03 01:06:48;;;;;;;1.95;1.08;;;11.50;99.90;;;;;;6214089;23;20063;-40
2023/06/03 01:09:50;;;;;;;3.03;1.00;;;11.50;99.90;;;;;;6213318;23;20016;-43
2023/06/03 01:12:26;;;;;;;1.25;1.00;;;11.40;99.90;;;;;;6186812;23;20021;-40
2023/06/03 01:15:00;;;;;;;5.75;0.77;;;11.40;99.90;;;;;;6214346;23;20021;-40
2023/06/03 01:17:30;;;;;;;2.03;0.95;;;11.30;99.90;;;;;;6216743;23;20028;-40
2023/06/03 01:19:58;;;;;;;1.35;0.85;;;11.30;99.90;;;;;;6216003;23;20024;-40
2023/06/03 01:22:28;;;;;;;1.73;0.90;;;11.30;99.90;;;;;;6215289;23;20017;-41
2023/06/03 01:25:06;;;;;;;3.05;1.10;;;11.20;99.90;;;;;;6215500;23;20023;-40
2023/06/03 01:27:32;;;;;;;0.80;0.75;;;11.20;99.90;;;;;;6214105;23;20108;-41
2023/06/03 01:29:58;;;;;;;3.40;1.13;;;11.10;99.90;;;;;;6212504;23;20017;-41
2023/06/03 01:32:23;;;;;;;3.63;1.00;;;11.10;99.90;;;;;;6212209;23;20028;-41
2023/06/03 01:34:51;;;;;;;1.70;0.90;;;11.10;99.90;;;;;;6208281;23;20023;-40
2023/06/03 01:37:16;;;;;;;1.40;0.93;;;11.00;99.90;;;;;;6206644;23;20017;-40
2023/06/03 01:39:43;;;;;;;2.03;0.82;;;11.00;99.90;;;;;;6207805;23;20092;-41
2023/06/03 01:42:10;;;;;;;3.92;0.88;;;10.90;99.90;;;;;;6211259;23;20016;-42
2023/06/03 01:44:37;;;;;;;1.45;1.00;;;10.90;99.90;;;;;;6212142;23;20337;-41
2023/06/03 01:47:04;;;;;;;2.78;1.00;;;10.90;99.90;;;;;;6211308;23;20023;-40
2023/06/03 01:49:33;;;;;;;2.73;1.60;;;10.80;99.90;;;;;;6211571;23;20112;-41
2023/06/03 01:51:59;;;;;;;1.88;0.90;;;10.80;99.90;;;;;;6184903;23;20044;-40
2023/06/03 01:54:25;;;;;;;2.00;1.00;;;10.70;99.90;;;;;;6215468;23;20096;-40
2023/06/03 01:56:55;;;;;;;1.73;1.00;;;10.70;99.90;;;;;;6215335;23;20048;-41
2023/06/03 01:59:23;;;;;;;2.85;1.05;;;10.70;99.90;;;;;;6215402;23;20042;-41
2023/06/03 02:01:51;;;;;;;3.05;1.27;;;10.60;99.90;;;;;;6214937;23;20342;-40
2023/06/03 02:04:16;;;;;;;;;;;10.60;99.90;;;;;;6215542;23;20045;-40
2023/06/03 02:06:50;;;;;;;1.90;0.93;;;10.50;99.90;;;;;;6215793;23;19946;-41
2023/06/03 02:09:16;;;;;;;1.67;0.90;;;10.50;99.90;;;;;;6214899;23;20032;-40
2023/06/03 02:11:43;;;;;;;2.97;1.10;;;10.40;99.90;;;;;;6215222;23;20333;-41
2023/06/03 02:14:12;;;;;;;1.20;1.00;;;10.40;99.90;;;;;;6215113;23;20024;-39
2023/06/03 02:16:40;;;;;;;2.70;1.17;;;10.30;99.90;;;;;;6214922;23;20236;-39
2023/06/03 02:19:14;;;;;;;1.05;0.90;;;10.30;99.90;;;;;;6218137;23;20376;-41
2023/06/03 02:21:41;;;;;;;1.23;1.10;;;10.20;99.90;;;;;;6215471;23;20024;-39
2023/06/03 02:24:07;;;;;;;1.20;0.93;;;10.20;99.90;;;;;;6216019;23;20012;-39
2023/06/03 02:26:34;;;;;;;3.83;1.20;;;10.10;99.90;;;;;;6215990;23;20031;-41
2023/06/03 02:29:00;;;;;;;3.13;1.08;;;10.00;99.90;;;;;;6212544;23;20024;-39
2023/06/03 02:31:25;;;;;;;1.60;1.10;;;10.00;99.90;;;;;;6184182;23;20017;-40
2023/06/03 02:33:51;;;;;;;2.50;1.10;;;10.00;99.90;;;;;;6211054;23;20013;-40
2023/06/03 02:36:18;;;;;;;2.13;0.98;;;9.90;99.90;;;;;;6210698;23;20388;-40
2023/06/03 02:38:44;;;;;;;1.73;0.98;;;9.90;99.90;;;;;;6183895;23;20147;-40
2023/06/03 02:41:10;;;;;;;2.03;1.20;;;9.80;99.90;;;;;;6208317;23;20094;-41
2023/06/03 02:43:36;;;;;;;1.92;1.17;;;9.80;99.90;;;;;;6205941;23;20321;-40
2023/06/03 02:46:02;;;;;;;1.80;0.90;;;9.70;99.90;;;;;;6209472;23;20082;-40
2023/06/03 02:48:27;;;;;;;2.50;1.13;;;9.70;99.90;;;;;;6211452;23;20035;-40
2023/06/03 02:50:53;;;;;;;3.03;1.15;;;9.70;99.90;;;;;;6211031;23;20317;-39
2023/06/03 02:53:19;;;;;;;1.40;1.10;;;9.60;99.90;;;;;;6210669;23;20024;-41
2023/06/03 02:55:45;;;;;;;2.25;1.05;;;9.60;99.90;;;;;;6210648;23;20031;-40
2023/06/03 02:58:15;;;;;;;2.30;1.10;;;9.60;99.90;;;;;;6211122;23;20024;-39
2023/06/03 03:00:41;;;;;;;2.78;1.17;;;9.50;99.90;;;;;;6210865;23;20047;-40
2023/06/03 03:03:06;;;;;;;2.60;1.30;;;9.50;99.90;;;;;;6183932;23;20353;-39
2023/06/03 03:05:32;;;;;;;3.28;1.20;;;9.50;99.90;;;;;;6210680;23;20025;-40
2023/06/03 03:07:58;;;;;;;3.42;1.30;;;9.40;99.90;;;;;;6209687;23;20012;-39
2023/06/03 03:10:27;;;;;;;2.40;1.02;;;9.40;99.90;;;;;;6210655;23;20020;-39
2023/06/03 03:12:53;;;;;;;3.80;1.20;;;9.40;99.90;;;;;;6210310;23;20017;-40
2023/06/03 03:15:19;;;;;;;2.15;1.10;;;9.40;99.90;;;;;;6210880;23;20020;-40
2023/06/03 03:17:45;;;;;;;3.60;1.10;;;9.40;99.90;;;;;;6186517;23;20341;-40
2023/06/03 03:20:12;;;;;;;1.40;1.05;;;9.40;99.90;;;;;;6215019;23;20433;-40
2023/06/03 03:22:44;;;;;;;4.78;1.10;;;9.30;99.90;;;;;;6217513;23;20022;-42
2023/06/03 03:25:10;;;;;;;4.57;1.30;;;9.30;99.90;;;;;;6214313;23;20012;-43
2023/06/03 03:27:36;;;;;;;5.28;1.30;;;9.30;99.90;;;;;;6162590;23;20012;-40
2023/06/03 03:30:04;;;;;;;4.85;1.40;;;9.30;99.90;;;;;;6188232;23;20069;-43
2023/06/03 03:32:31;;;;;;;2.70;1.10;;;9.30;99.90;;;;;;6215189;23;20024;-40
2023/06/03 03:35:13;;;;;;;2.28;1.10;;;9.30;99.90;;;;;;6214795;23;20113;-40
2023/06/03 03:37:38;;;;;;;3.53;1.20;;;9.30;99.90;;;;;;6214352;23;20035;-40
2023/06/03 03:40:19;;;;;;;2.08;1.10;;;9.30;99.90;;;;;;6213888;23;20441;-40
2023/06/03 03:42:52;;;;;;;2.60;1.30;;;9.30;99.90;;;;;;6214227;23;20128;-40
2023/06/03 03:45:19;;;;;;;2.13;1.05;;;9.30;99.90;;;;;;6213586;23;20020;-41
2023/06/03 03:47:49;;;;;;;1.92;1.00;;;9.30;99.90;;;;;;6207364;23;20012;-40
2023/06/03 03:50:45;;;;;;;1.73;1.08;;;9.30;99.90;;;;;;6182253;23;20012;-40
2023/06/03 03:53:15;;;;;;;2.00;1.20;;;9.30;99.90;;;;;;6210551;23;20020;-40
2023/06/03 03:55:49;;;;;;;1.45;1.08;;;9.30;99.90;;;;;;6211250;23;20029;-41
2023/06/03 03:58:40;;;;;;;2.50;0.82;;;9.30;99.90;;;;;;6210462;23;20020;-40
2023/06/03 04:01:12;;;;;;;3.92;1.20;;;9.30;99.90;;;;;;6210079;23;20087;-40
2023/06/03 04:03:42;;;;;;;2.92;1.10;;;9.30;99.90;;;;;;6210041;23;20012;-40
2023/06/03 04:06:09;;;;;;;1.98;1.30;;;9.30;99.90;;;;;;6210160;23;20018;-42
2023/06/03 04:08:46;;;;;;;1.73;1.08;;;9.30;99.90;;;;;;6183149;23;20095;-40
2023/06/03 04:11:20;;;;;;;4.55;1.30;;;9.30;99.90;;;;;;6209997;23;20468;-40
2023/06/03 04:13:46;;;;;;;1.65;1.10;;;9.40;99.90;;;;;;6183546;23;20017;-41
2023/06/03 04:16:22;;;;;;;1.75;1.10;;;9.40;99.90;;;;;;6210210;23;20253;-40
2023/06/03 04:18:48;;;;;;;2.97;1.73;;;9.40;99.90;;;;;;6210625;23;20088;-41
2023/06/03 04:21:18;;;;;;;3.15;1.25;;;9.50;99.90;;;;;;6211605;23;20043;-40
2023/06/03 04:23:45;;;;;;;3.38;1.40;;;9.50;99.90;;;;;;6210875;23;20035;-43
2023/06/03 04:26:14;;;;;;;1.92;1.20;;;9.60;99.90;;;;;;6181688;23;20028;-40
2023/06/03 04:28:40;;;;;;;4.13;1.10;;;9.60;99.90;;;;;;6209405;23;20016;-40
2023/06/03 04:31:06;;;;;;;3.92;1.27;;;9.70;99.90;;;;;;6207431;23;20043;-39
2023/06/03 04:33:32;;;;;;;3.53;1.38;;;10.00;99.90;;;;;;6209066;23;20013;-40
2023/06/03 04:35:58;;;;;;;3.28;1.15;;;12.00;99.90;;;;;;6207045;23;20017;-42
2023/06/03 04:38:23;;;;;;;2.70;1.30;;;12.60;99.90;;;;;;6208896;23;20012;-40
2023/06/03 04:40:49;;;;;;;1.73;1.35;;;13.30;99.90;;;;;;6206206;23;20070;-41
2023/06/03 04:43:18;;;;;;;1.65;1.20;;;14.10;99.90;;;;;;6206108;23;20020;-40
2023/06/03 04:45:45;;;;;;;2.65;1.20;;;14.90;99.90;;;;;;6208147;23;20060;-40
2023/06/03 04:48:13;;;;;;;2.90;1.42;;;15.40;99.90;;;;;;6207814;23;20135;-41
2023/06/03 04:50:43;;;;;;;3.25;1.20;;;15.80;99.90;;;;;;6208774;23;20012;-42
2023/06/03 04:53:12;;;;;;;1.65;1.27;;;16.10;99.90;;;;;;6209205;23;20333;-40
2023/06/03 04:55:43;;;;;;;2.33;1.10;;;16.60;99.90;;;;;;6182588;23;20349;-41
2023/06/03 04:58:12;;;;;;;3.92;1.13;;;16.70;98.70;;;;;;6208996;23;20016;-41
2023/06/03 05:00:40;;;;;;;3.25;1.30;;;17.00;98.50;;;;;;6209540;23;20107;-42
2023/06/03 05:03:08;;;;;;;1.73;1.35;;;17.50;97.90;;;;;;6209573;23;20012;-41
2023/06/03 05:05:34;;;;;;;;;;;17.60;98.00;;;;;;6209009;23;20418;-42
2023/06/03 05:08:00;;;;;;;2.72;1.25;;;17.80;96.60;;;;;;6210915;23;19916;-42
2023/06/03 05:10:27;;;;;;;2.42;1.20;;;18.20;96.00;;;;;;6182848;23;20401;-41
2023/06/03 05:12:53;;;;;;;3.05;1.35;;;17.90;94.70;;;;;;6209192;23;20023;-40
2023/06/03 05:15:19;;;;;;;1.50;1.40;;;18.20;95.30;;;;;;6208451;23;20009;-41
2023/06/03 05:17:45;;;;;;;2.92;1.35;;;18.20;94.40;;;;;;6211937;23;20468;-41
2023/06/03 05:20:11;;;;;;;4.25;1.38;;;18.60;94.40;;;;;;6213067;23;20013;-42
2023/06/03 05:22:37;;;;;;;3.28;1.20;;;18.80;94.20;;;;;;6212741;23;20025;-41
2023/06/03 05:25:04;;;;;;;4.55;1.48;;;19.30;93.90;;;;;;6212179;23;20017;-41
2023/06/03 05:27:30;;;;;;;4.00;1.40;;;19.00;93.30;;;;;;6210533;23;20092;-42
2023/06/03 05:29:56;;;;;;;2.35;1.13;;;18.70;93.00;;;;;;6211694;23;20044;-42
2023/06/03 05:32:21;;;;;;;1.45;1.17;;;19.30;93.20;;;;;;6211591;23;20036;-42
2023/06/03 05:34:47;;;;;;;2.08;1.42;;;20.20;92.90;;;;;;6212765;23;20019;-44
2023/06/03 05:37:13;;;;;;;1.33;1.10;;;20.10;91.20;;;;;;6212450;23;20044;-41
2023/06/03 05:39:39;;;;;;;4.43;1.30;;;20.00;90.10;;;;;;6213269;23;20280;-42
2023/06/03 05:42:05;;;;;;;3.10;1.40;;;20.00;89.80;;;;;;6160780;23;20024;-42
2023/06/03 05:44:30;;;;;;;3.40;1.10;;;20.30;88.70;;;;;;6213636;23;20040;-41
2023/06/03 05:46:56;;;;;;;1.27;1.00;;;20.10;87.40;;;;;;6212668;23;20012;-43
2023/06/03 05:49:21;;;;;;;2.67;1.40;;;20.60;88.50;;;;;;6209800;23;20067;-43
2023/06/03 05:51:47;;;;;;;3.92;1.48;;;20.80;89.00;;;;;;6209709;23;20016;-41
2023/06/03 05:54:13;;;;;;;1.80;1.20;;;20.50;85.20;;;;;;6183414;23;20021;-41
2023/06/03 05:56:39;;;;;;;3.00;1.27;;;20.80;88.00;;;;;;6182596;23;20437;-41
2023/06/03 05:59:05;;;;;;;2.33;1.40;;;21.00;85.00;;;;;;6209673;23;20013;-42
2023/06/03 06:01:32;;;;;;;2.75;1.15;;;21.20;84.40;;;;;;6209605;23;20017;-44
2023/06/03 06:03:58;;;;;;;1.40;1.30;;;20.90;82.50;;;;;;6183058;23;20021;-41
2023/06/03 06:06:23;;;;;;;2.25;1.50;;;21.00;83.10;;;;;;6209595;23;20120;-41
2023/06/03 06:08:49;;;;;;;4.35;1.60;;;21.30;85.90;;;;;;6210378;23;20021;-43
2023/06/03 06:11:15;;;;;;;2.03;1.13;;;21.30;81.90;;;;;;6209033;23;20016;-42
2023/06/03 06:13:41;;;;;;;3.80;1.35;;;21.50;83.10;;;;;;6208862;23;20019;-41
2023/06/03 06:16:07;;;;;;;2.97;1.30;;;21.20;81.70;;;;;;6209003;23;20441;-45
2023/06/03 06:18:33;;;;;;;2.40;1.20;;;21.60;81.30;;;;;;6209168;23;20208;-42
2023/06/03 06:20:59;;;;;;;3.50;1.35;;;21.80;81.70;;;;;;6209375;23;20136;-42
2023/06/03 06:23:25;;;;;;;4.30;1.52;;;22.30;82.00;;;;;;6183816;23;20341;-41
2023/06/03 06:25:52;;;;;;;4.80;1.63;;;22.70;82.10;;;;;;6185670;23;20025;-41
2023/06/03 06:28:22;;;;;;;1.95;1.20;;;22.60;80.60;;;;;;6183170;23;20317;-41
2023/06/03 06:30:47;;;;;;;2.05;1.42;;;22.70;77.00;;;;;;6209649;23;20009;-40
2023/06/03 06:33:15;;;;;;;2.97;1.30;;;22.50;75.70;;;;;;6208842;23;20023;-41
2023/06/03 06:35:41;;;;;;;;;;;22.80;77.30;;;;;;6209365;23;20483;-41
2023/06/03 06:38:07;;;;;;;2.47;1.20;;;22.60;75.00;;;;;;6209841;23;19920;-41
2023/06/03 06:40:37;;;;;;;2.25;1.20;;;22.40;74.80;;;;;;6209331;23;20020;-42
2023/06/03 06:43:03;;;;;;;2.90;1.25;;;22.30;75.00;;;;;;6162149;23;1091635;-41
2023/06/03 06:45:33;;;;;;;2.10;1.63;;;22.50;74.20;;;;;;6212215;23;20024;-42
2023/06/03 06:48:09;;;;;;;2.50;1.00;;;22.70;75.80;;;;;;6211941;23;20036;-42
2023/06/03 06:50:54;;;;;;;2.20;1.25;;;22.90;72.90;;;;;;6212118;23;20079;-43
2023/06/03 06:53:23;;;;;;;1.77;0.90;;;22.80;73.20;;;;;;6211069;23;20337;-44
2023/06/03 06:56:02;;;;;;;2.53;1.13;;;22.90;71.50;;;;;;6213725;23;20012;-44
2023/06/03 06:58:38;;;;;;;0.77;0.77;;;22.60;72.60;;;;;;6183669;23;20064;-42
2023/06/03 07:01:05;;;;;;;1.00;0.90;;;22.40;71.70;;;;;;6211043;23;20111;-42
2023/06/03 07:03:31;;;;;;;1.55;1.00;;;22.70;72.90;;;;;;6183581;23;20016;-43
2023/06/03 07:05:57;;;;;;;2.33;0.90;;;23.00;71.10;;;;;;6211424;23;20013;-43
2023/06/03 07:08:24;;;;;;;1.90;1.00;;;23.30;69.80;;;;;;6210573;23;20256;-44
2023/06/03 07:10:54;;;;;;;3.58;0.90;;;23.60;68.50;;;;;;6210307;23;20016;-41
2023/06/03 07:13:20;;;;;;;1.33;0.80;;;23.60;66.10;;;;;;6210778;23;20027;-42
2023/06/03 07:15:46;;;;;;;1.25;0.70;;;23.50;67.00;;;;;;6207332;23;20016;-43
2023/06/03 07:18:12;;;;;;;3.40;1.02;;;23.00;65.50;;;;;;6209610;23;20013;-42
2023/06/03 07:20:42;;;;;;;2.90;0.90;;;22.50;65.10;;;;;;6212347;23;20095;-40
2023/06/03 07:23:13;;;;;;;1.00;0.80;;;21.80;65.60;;;;;;6214730;23;20063;-40
2023/06/03 07:25:44;;;;;;;0.80;0.80;;;21.60;65.70;;;;;;6214644;23;20096;-41
2023/06/03 07:28:14;;;;;;;3.80;0.80;;;21.80;67.30;;;;;;6214126;23;20115;-41
2023/06/03 07:30:42;;;;;;;1.52;0.80;;;21.80;66.90;;;;;;6214470;23;20012;-41
2023/06/03 07:33:08;;;;;;;;;;;21.50;67.30;;;;;;6215149;23;20341;-41
2023/06/03 07:35:37;;;;;;;1.67;1.05;;;22.00;67.60;;;;;;6213626;23;20277;-42
2023/06/03 07:38:04;;;;;;;2.55;0.80;;;22.10;66.80;;;;;;6213647;23;20117;-40
2023/06/03 07:40:43;;;;;;;1.65;0.77;;;21.70;67.30;;;;;;6214095;23;20333;-41
2023/06/03 07:43:09;;;;;;;2.13;0.85;;;;;;;;;;6186833;23;20091;-41
2023/06/03 07:45:36;;;;;;;1.43;0.70;;;20.40;67.00;;;;;;6213230;23;20025;-42
2023/06/03 07:48:03;;;;;;;3.45;0.82;;;20.60;68.00;;;;;;6209071;23;20388;-41
2023/06/03 07:50:29;;;;;;;;;;;20.20;69.30;;;;;;6208550;23;20092;-40
2023/06/03 07:53:03;;;;;;;2.28;1.00;;;20.20;67.90;;;;;;6208742;23;19947;-42
2023/06/03 07:55:47;;;;;;;3.17;0.60;;;20.20;67.90;;;;;;6208075;23;20092;-41
2023/06/03 07:58:15;;;;;;;1.85;0.75;;;20.10;69.60;;;;;;6211449;23;20016;-41
2023/06/03 08:00:54;;;;;;;3.53;0.80;;;19.80;68.80;;;;;;6211051;23;20012;-42
2023/06/03 08:03:25;;;;;;;1.85;0.75;;;19.60;68.50;;;;;;6185182;23;20039;-41
2023/06/03 08:05:51;;;;;;;1.15;0.80;;;19.50;69.00;;;;;;6211928;23;20348;-41
2023/06/03 08:08:28;;;;;;;1.85;0.80;;;19.40;68.50;;;;;;6211448;23;20087;-40
2023/06/03 08:10:54;;;;;;;2.67;0.70;;;19.30;68.50;;;;;;6182225;23;20063;-43
2023/06/03 08:13:19;;;;;;;1.67;0.70;;;19.40;68.20;;;;;;6209437;23;20449;-42
2023/06/03 08:15:47;;;;;;;1.40;0.70;;;19.50;68.40;;;;;;6209527;23;20020;-40
2023/06/03 08:18:26;;;;;;;0.95;0.80;;;19.10;67.50;;;;;;6209419;23;20021;-41
2023/06/03 08:20:51;;;;;;;0.73;0.73;;;19.10;67.40;;;;;;6209956;23;20080;-41
2023/06/03 08:23:17;;;;;;;2.13;0.90;;;19.40;67.30;;;;;;6211519;23;20055;-41
2023/06/03 08:25:43;;;;;;;2.70;0.80;;;19.20;68.10;;;;;;6208065;23;20388;-43
2023/06/03 08:28:09;;;;;;;4.60;0.90;;;19.30;68.90;;;;;;6204414;23;20346;-42
2023/06/03 08:30:34;;;;;;;2.35;0.90;;;19.50;68.30;;;;;;6208698;23;20511;-41
2023/06/03 08:33:00;;;;;;;2.85;0.70;;;19.80;65.40;;;;;;6211152;23;20101;-40
2023/06/03 08:35:26;;;;;;;2.85;0.80;;;19.80;65.20;;;;;;6212434;23;20074;-42
2023/06/03 08:37:52;;;;;;;2.75;0.50;;;19.60;65.20;;;;;;6208391;23;20091;-42
2023/06/03 08:40:18;;;;;;;0.75;0.60;;;19.50;63.50;;;;;;6207933;23;20023;-41
2023/06/03 08:42:48;;;;;;;1.75;0.70;;;19.00;63.30;;;;;;6207796;23;20013;-40
2023/06/03 08:45:15;;;;;;;0.85;0.80;;;19.10;64.60;;;;;;6209019;23;20017;-40
2023/06/03 08:47:58;;;;;;;1.45;0.60;;;19.70;65.30;;;;;;6206659;23;20021;-41
2023/06/03 08:50:26;;;;;;;1.17;0.60;;;19.80;63.80;;;;;;6207242;23;20314;-42
2023/06/03 08:52:53;;;;;;;2.30;0.60;;;19.90;65.40;;;;;;6210702;23;20013;-43
2023/06/03 08:55:20;;;;;;;0.60;0.60;;;20.20;64.00;;;;;;6210431;23;20020;-40
2023/06/03 08:58:12;;;;;;;3.90;0.80;;;20.40;62.90;;;;;;6208125;23;20015;-44
2023/06/03 09:00:39;;;;;;;1.13;0.50;;;20.40;61.50;;;;;;6209538;23;20082;-40
2023/06/03 09:03:07;;;;;;;0.95;0.70;;;20.70;63.40;;;;;;6207904;23;20032;-41
2023/06/03 09:05:35;;;;;;;1.27;0.70;;;20.40;63.70;;;;;;6209183;23;20040;-43
2023/06/03 09:08:02;;;;;;;1.42;0.82;;;19.80;61.90;;;;;;6209667;23;20017;-40
2023/06/03 09:10:32;;;;;;;1.58;0.88;;;19.30;61.70;;;;;;6208069;23;20349;-40
2023/06/03 09:12:59;;;;;;;0.88;0.80;;;19.20;62.60;;;;;;6209743;23;20028;-41
2023/06/03 09:15:25;;;;;;;0.95;0.77;;;19.00;63.40;;;;;;6184135;23;20013;-40
2023/06/03 09:17:51;;;;;;;1.27;0.82;;;19.20;63.10;;;;;;6209827;23;20472;-40
2023/06/03 09:20:17;;;;;;;2.35;0.68;;;19.30;63.70;;;;;;6209289;23;20305;-41
2023/06/03 09:22:46;;;;;;;1.85;0.73;;;19.30;64.20;;;;;;6210432;23;20332;-42
2023/06/03 09:25:12;;;;;;;1.83;0.70;;;19.20;64.40;;;;;;6183667;23;20255;-40
2023/06/03 09:27:39;;;;;;;10.45;1.00;;;19.00;64.20;;;;;;6211166;23;20044;-45
2023/06/03 09:30:05;;;;;;;0.90;0.60;;;18.70;63.10;;;;;;6207998;23;20013;-41
2023/06/03 09:32:34;;;;;;;1.38;0.80;;;18.80;65.20;;;;;;6210825;23;20444;-42
2023/06/03 09:35:04;;;;;;;2.25;0.80;;;18.80;62.70;;;;;;6184025;23;20040;-40
2023/06/03 09:37:33;;;;;;;1.80;0.68;;;19.30;63.60;;;;;;6211145;23;20028;-40
2023/06/03 09:40:00;;;;;;;2.20;0.70;;;19.50;63.50;;;;;;6213405;23;20028;-42
2023/06/03 09:42:42;;;;;;;2.05;0.82;;;19.80;63.40;;;;;;6213318;23;20051;-43
2023/06/03 09:45:31;;;;;;;1.95;0.93;;;20.30;64.00;;;;;;6212700;23;20353;-41
2023/06/03 09:48:01;;;;;;;0.80;0.63;;;20.60;64.40;;;;;;6213767;23;20017;-42
2023/06/03 09:50:28;;;;;;;2.45;0.80;;;20.60;63.90;;;;;;6186370;23;20051;-41
2023/06/03 09:52:54;;;;;;;5.03;0.73;;;20.90;65.40;;;;;;6211338;23;20027;-42
2023/06/03 09:55:22;;;;;;;0.98;0.80;;;20.60;64.20;;;;;;6212784;23;20091;-42
2023/06/03 09:58:09;;;;;;;4.03;0.90;;;20.90;64.50;;;;;;6212822;23;20013;-42
2023/06/03 10:00:49;;;;;;;1.08;0.70;;;21.30;63.80;;;;;;6212616;23;20014;-42
2023/06/03 10:03:16;;;;;;;1.85;0.82;;;21.40;64.70;;;;;;6185990;23;20009;-41
2023/06/03 10:05:41;;;;;;;2.42;0.82;;;21.30;63.60;;;;;;6215131;23;20321;-43
2023/06/03 10:08:07;;;;;;;2.55;0.90;;;21.50;63.80;;;;;;6213141;23;20017;-41
2023/06/03 10:10:34;;;;;;;1.52;0.70;;;;;;;;;;6212406;23;20017;-43
2023/06/03 10:13:21;;;;;;;0.88;0.80;;;21.50;61.80;;;;;;6211937;23;20021;-42
2023/06/03 10:15:48;;;;;;;1.17;0.80;;;21.00;61.80;;;;;;6212858;23;20027;-40
2023/06/03 10:18:14;;;;;;;1.92;1.30;;;21.40;65.00;;;;;;6212712;23;20332;-43
2023/06/03 10:20:41;;;;;;;2.30;0.68;;;21.30;63.00;;;;;;6212375;23;20020;-40
2023/06/03 10:23:09;;;;;;;2.65;1.30;;;21.10;62.60;;;;;;6211780;23;20050;-41
2023/06/03 10:25:43;;;;;;;1.35;0.70;;;21.00;61.60;;;;;;6185495;23;20448;-43
2023/06/03 10:28:11;;;;;;;3.10;0.80;;;20.80;62.60;;;;;;6211729;23;20048;-41
2023/06/03 10:30:37;;;;;;;1.63;0.80;;;20.70;62.50;;;;;;6211441;23;20013;-42
2023/06/03 10:33:04;;;;;;;1.13;0.80;;;20.80;64.00;;;;;;6209778;23;20017;-42
2023/06/03 10:35:34;;;;;;;1.13;0.70;;;20.80;63.20;;;;;;6212355;23;20012;-41
2023/06/03 10:38:01;;;;;;;1.00;0.80;;;20.80;63.40;;;;;;6184492;23;20092;-40
2023/06/03 10:40:28;;;;;;;4.72;0.77;;;21.20;65.10;;;;;;6211587;23;20100;-42
2023/06/03 10:42:55;;;;;;;2.05;0.90;;;21.10;62.70;;;;;;6210158;23;20453;-40
2023/06/03 10:45:21;;;;;;;;;;;21.00;62.80;;;;;;6212529;23;20086;-41
2023/06/03 10:47:49;;;;;;;1.90;1.40;;;20.90;63.00;;;;;;6182619;23;19919;-42
2023/06/03 10:50:23;;;;;;;2.13;0.93;;;20.90;63.10;;;;;;6209274;23;20060;-41
2023/06/03 10:53:26;;;;;;;4.03;0.70;;;21.00;63.70;;;;;;6210969;23;20018;-41
2023/06/03 10:56:13;;;;;;;2.42;0.80;;;21.00;62.80;;;;;;6212135;23;20017;-41
2023/06/03 10:58:43;;;;;;;1.20;1.10;;;21.20;64.10;;;;;;6211241;23;20059;-42
2023/06/03 11:01:08;;;;;;;1.42;0.77;;;21.00;61.90;;;;;;6184028;23;20016;-42
2023/06/03 11:03:51;;;;;;;1.80;0.70;;;21.40;64.30;;;;;;6210005;23;20013;-42
2023/06/03 11:06:25;;;;;;;1.92;0.80;;;21.40;63.90;;;;;;6210174;23;20436;-41
2023/06/03 11:09:08;;;;;;;4.40;1.00;;;21.30;62.70;;;;;;6208533;23;20339;-43
2023/06/03 11:11:52;;;;;;;1.20;0.80;;;21.40;62.70;;;;;;6210805;23;20048;-40
2023/06/03 11:14:27;;;;;;;3.15;0.73;;;21.70;63.90;;;;;;6211048;23;20306;-41
2023/06/03 11:16:58;;;;;;;0.93;0.70;;;21.40;60.60;;;;;;6211860;23;20020;-40
2023/06/03 11:19:31;;;;;;;3.88;0.80;;;21.20;60.50;;;;;;6208624;23;20055;-41
2023/06/03 11:22:10;;;;;;;1.90;0.70;;;21.60;62.70;;;;;;6209669;23;20054;-41
2023/06/03 11:24:38;;;;;;;0.63;0.55;;;21.40;59.80;;;;;;6210645;23;20032;-42
2023/06/03 11:27:10;;;;;;;1.33;0.60;;;21.60;59.60;;;;;;6210907;23;20091;-43
2023/06/03 11:29:51;;;;;;;2.13;0.65;;;21.50;59.90;;;;;;6184659;23;20091;-41
2023/06/03 11:32:27;;;;;;;1.40;0.70;;;21.50;59.50;;;;;;6209959;23;20019;-41
2023/06/03 11:34:59;;;;;;;0.70;0.60;;;21.40;59.70;;;;;;6210807;23;20024;-41
2023/06/03 11:37:43;;;;;;;2.60;0.70;;;21.30;59.60;;;;;;6208795;23;20074;-41
2023/06/03 11:40:14;;;;;;;1.25;0.60;;;21.10;57.60;;;;;;6207031;23;20020;-44
2023/06/03 11:42:48;;;;;;;1.52;0.70;;;21.10;58.00;;;;;;6207508;23;20028;-41
2023/06/03 11:45:29;;;;;;;0.95;0.65;;;21.30;60.10;;;;;;6180433;23;20020;-41
2023/06/03 11:48:09;;;;;;;2.65;0.70;;;21.40;58.40;;;;;;6208328;23;20019;-43
2023/06/03 11:50:57;;;;;;;0.95;0.55;;;21.40;58.90;;;;;;6207090;23;20095;-40
2023/06/03 11:53:36;;;;;;;2.42;1.05;;;21.20;58.50;;;;;;6206858;23;20021;-40
2023/06/03 11:56:03;;;;;;;1.13;0.70;;;21.20;58.50;;;;;;6181014;23;20013;-41
2023/06/03 11:58:28;;;;;;;1.75;0.57;;;21.50;59.30;;;;;;6207364;23;20039;-42
2023/06/03 12:01:23;;;;;;;3.00;0.90;;;21.60;60.10;;;;;;6208167;23;20441;-40
2023/06/03 12:04:02;;;;;;;2.53;0.90;;;21.90;62.50;;;;;;6160094;23;20051;-43
2023/06/03 12:06:37;;;;;;;1.33;0.70;;;22.00;61.30;;;;;;6208813;23;20020;-41
2023/06/03 12:09:03;;;;;;;0.70;0.70;;;21.90;60.10;;;;;;6181847;23;20020;-39
2023/06/03 12:11:33;;;;;;;3.22;0.80;;;21.80;60.90;;;;;;6208396;23;20104;-42
2023/06/03 12:13:59;;;;;;;2.25;0.80;;;21.80;60.30;;;;;;6208909;23;20067;-42
2023/06/03 12:16:26;;;;;;;1.67;0.75;;;22.10;62.40;;;;;;6208918;23;20009;-40
2023/06/03 12:18:52;;;;;;;1.90;0.73;;;22.20;60.10;;;;;;6182836;23;20016;-41
2023/06/03 12:21:22;;;;;;;1.92;0.77;;;22.20;60.90;;;;;;6207592;23;20116;-40
2023/06/03 12:23:48;;;;;;;0.90;0.77;;;22.10;60.20;;;;;;6206837;23;20441;-41
2023/06/03 12:26:13;;;;;;;3.13;1.00;;;22.20;59.80;;;;;;6179376;23;20027;-40
2023/06/03 12:28:40;;;;;;;2.47;0.90;;;21.90;59.20;;;;;;6205152;23;20017;-41
2023/06/03 12:31:16;;;;;;;4.03;0.80;;;22.20;61.00;;;;;;6209686;23;20460;-40
2023/06/03 12:33:44;;;;;;;4.30;1.25;;;22.20;61.20;;;;;;6210793;23;20017;-41
2023/06/03 12:36:13;;;;;;;2.10;0.80;;;22.20;60.60;;;;;;6208260;23;20298;-39
2023/06/03 12:38:55;;;;;;;1.48;0.70;;;22.20;61.50;;;;;;6208306;23;20019;-40
2023/06/03 12:41:21;;;;;;;2.17;0.70;;;22.00;60.50;;;;;;6207644;23;20089;-40
2023/06/03 12:43:47;;;;;;;0.93;0.70;;;22.10;61.70;;;;;;6206683;23;20012;-40
2023/06/03 12:46:17;;;;;;;1.05;0.68;;;22.20;62.00;;;;;;6179752;23;20178;-41
2023/06/03 12:48:44;;;;;;;1.10;0.82;;;22.20;61.90;;;;;;6208751;23;20027;-39
2023/06/03 12:51:22;;;;;;;2.25;0.80;;;22.10;61.00;;;;;;6180852;23;20078;-41
2023/06/03 12:53:49;;;;;;;2.95;1.02;;;22.10;61.40;;;;;;6208772;23;20020;-41
2023/06/03 12:56:15;;;;;;;4.65;0.90;;;;;;;;;;6155977;23;20024;-43
2023/06/03 12:58:42;;;;;;;3.53;0.82;;;22.50;61.00;;;;;;6207809;23;20031;-43
2023/06/03 13:01:08;;;;;;;2.67;0.70;;;22.70;61.50;;;;;;6183090;23;20017;-42